createdAt,value
2017-08-13T00:01:38.543Z,99.90
2017-08-13T00:04:06.105Z,99.90
2017-08-13T00:06:33.637Z,99.90
2017-08-13T00:09:01.118Z,99.90
2017-08-13T00:11:28.549Z,99.90
2017-08-13T00:13:56.011Z,99.90
2017-08-13T00:16:23.656Z,99.90
2017-08-13T00:18:51.123Z,99.90
2017-08-13T00:21:18.602Z,99.90
2017-08-13T00:23:46.124Z,99.90
2017-08-13T00:26:13.597Z,99.90
2017-08-13T00:28:41.050Z,99.90
2017-08-13T00:31:08.495Z,99.90
2017-08-13T00:33:35.947Z,99.90
2017-08-13T00:36:03.386Z,99.90
2017-08-13T00:38:30.902Z,99.90
2017-08-13T00:40:58.455Z,99.90
2017-08-13T00:43:25.900Z,99.90
2017-08-13T00:45:53.341Z,99.90
2017-08-13T00:48:20.810Z,99.90
2017-08-13T00:50:48.251Z,99.90
2017-08-13T00:53:15.713Z,99.90
2017-08-13T00:55:43.142Z,99.90
2017-08-13T00:58:10.644Z,99.90
2017-08-13T01:00:38.084Z,99.90
2017-08-13T01:03:05.578Z,99.90
2017-08-13T01:05:33.785Z,99.90
2017-08-13T01:08:01.292Z,99.90
2017-08-13T01:10:28.734Z,99.90
2017-08-13T01:12:56.202Z,99.90
2017-08-13T01:15:23.642Z,99.90
2017-08-13T01:17:51.098Z,99.90
2017-08-13T01:20:18.547Z,99.90
2017-08-13T01:22:46.131Z,99.90
2017-08-13T01:25:13.585Z,99.90
2017-08-13T01:27:41.016Z,99.90
2017-08-13T01:30:08.485Z,99.90
2017-08-13T01:32:35.914Z,99.90
2017-08-13T01:35:03.485Z,99.90
2017-08-13T01:37:30.953Z,99.90
2017-08-13T01:39:58.527Z,99.90
2017-08-13T01:42:25.975Z,99.90
2017-08-13T01:44:53.423Z,99.90
2017-08-13T01:47:20.874Z,99.90
2017-08-13T01:49:48.315Z,99.90
2017-08-13T01:52:15.806Z,99.90
2017-08-13T01:54:43.251Z,99.90
2017-08-13T01:57:10.684Z,99.90
2017-08-13T01:59:38.161Z,99.90
2017-08-13T02:02:05.590Z,99.90
2017-08-13T02:04:33.022Z,99.90
2017-08-13T02:07:01.245Z,99.90
2017-08-13T02:09:28.719Z,99.90
2017-08-13T02:11:56.162Z,99.90
2017-08-13T02:14:23.607Z,99.90
2017-08-13T02:16:51.042Z,99.90
2017-08-13T02:19:18.470Z,99.90
2017-08-13T02:21:46.670Z,99.90
2017-08-13T02:24:14.098Z,99.90
2017-08-13T02:26:42.342Z,99.90
2017-08-13T02:29:09.771Z,99.90
2017-08-13T02:31:37.219Z,99.90
2017-08-13T02:34:04.707Z,99.90
2017-08-13T02:36:32.154Z,99.90
2017-08-13T02:38:59.620Z,99.90
2017-08-13T02:41:27.049Z,99.90
2017-08-13T02:43:54.536Z,99.90
2017-08-13T02:46:21.991Z,99.90
2017-08-13T02:48:49.414Z,99.90
2017-08-13T02:51:16.872Z,99.90
2017-08-13T02:53:44.326Z,99.90
2017-08-13T02:56:11.806Z,99.90
2017-08-13T02:58:39.258Z,99.90
2017-08-13T03:01:06.686Z,99.90
2017-08-13T03:03:34.195Z,99.90
2017-08-13T03:06:01.649Z,99.90
2017-08-13T03:08:29.193Z,99.90
2017-08-13T03:10:56.618Z,99.90
2017-08-13T03:13:24.108Z,99.90
2017-08-13T03:15:51.545Z,99.90
2017-08-13T03:18:18.993Z,99.90
2017-08-13T03:20:46.474Z,99.90
2017-08-13T03:23:13.914Z,99.90
2017-08-13T03:25:41.391Z,99.90
2017-08-13T03:28:08.847Z,99.90
2017-08-13T03:30:36.315Z,99.90
2017-08-13T03:33:03.754Z,99.90
2017-08-13T03:35:31.206Z,99.90
2017-08-13T03:37:58.629Z,99.90
2017-08-13T03:40:26.141Z,99.90
2017-08-13T03:42:53.582Z,99.90
2017-08-13T03:45:21.045Z,99.90
2017-08-13T03:47:48.500Z,99.90
2017-08-13T03:50:16.018Z,99.90
2017-08-13T03:52:43.446Z,99.90
2017-08-13T03:55:11.690Z,99.90
2017-08-13T03:57:39.134Z,99.90
2017-08-13T04:00:06.680Z,99.90
2017-08-13T04:02:34.116Z,99.90
2017-08-13T04:05:01.561Z,99.90
2017-08-13T04:07:29.762Z,99.90
2017-08-13T04:09:57.202Z,99.90
2017-08-13T04:12:24.654Z,99.90
2017-08-13T04:14:52.089Z,99.90
2017-08-13T04:17:20.343Z,99.90
2017-08-13T04:19:47.867Z,99.90
2017-08-13T04:22:15.337Z,99.90
2017-08-13T04:24:42.765Z,99.90
2017-08-13T04:27:10.266Z,99.90
2017-08-13T04:29:37.697Z,99.90
2017-08-13T04:32:05.158Z,99.90
2017-08-13T04:34:32.597Z,99.90
2017-08-13T04:37:00.089Z,99.90
2017-08-13T04:39:27.536Z,99.90
2017-08-13T04:41:54.970Z,99.90
2017-08-13T04:44:22.421Z,99.90
2017-08-13T04:46:49.861Z,99.90
2017-08-13T04:49:17.298Z,99.90
2017-08-13T04:51:45.532Z,99.90
2017-08-13T04:54:12.962Z,99.90
2017-08-13T04:56:40.429Z,99.90
2017-08-13T04:59:07.902Z,99.90
2017-08-13T05:01:35.354Z,99.90
2017-08-13T05:04:02.922Z,99.90
2017-08-13T05:06:30.358Z,99.90
2017-08-13T05:08:57.821Z,99.90
2017-08-13T05:11:25.259Z,99.90
2017-08-13T05:13:52.693Z,99.90
2017-08-13T05:16:20.283Z,99.90
2017-08-13T05:18:47.710Z,99.90
2017-08-13T05:21:15.209Z,99.90
2017-08-13T05:23:42.670Z,99.90
2017-08-13T05:26:10.132Z,99.90
2017-08-13T05:28:37.562Z,99.90
2017-08-13T05:31:05.006Z,99.90
2017-08-13T05:33:32.441Z,99.90
2017-08-13T05:36:00.647Z,99.90
2017-08-13T05:38:28.102Z,99.90
2017-08-13T05:40:55.550Z,99.90
2017-08-13T05:43:22.975Z,99.90
2017-08-13T05:45:51.201Z,99.90
2017-08-13T05:48:18.631Z,99.90
2017-08-13T05:50:46.223Z,99.90
2017-08-13T05:53:13.682Z,99.90
2017-08-13T05:55:41.137Z,99.90
2017-08-13T05:58:08.602Z,99.90
2017-08-13T06:00:36.034Z,99.90
2017-08-13T06:03:03.506Z,99.90
2017-08-13T06:05:30.954Z,99.90
2017-08-13T06:07:58.394Z,99.90
2017-08-13T06:10:25.818Z,99.90
2017-08-13T06:12:54.046Z,99.90
2017-08-13T06:15:21.487Z,99.90
2017-08-13T06:17:48.950Z,99.90
2017-08-13T06:20:16.375Z,99.90
2017-08-13T06:22:43.794Z,99.90
2017-08-13T06:25:11.314Z,99.90
2017-08-13T06:27:38.785Z,99.90
2017-08-13T06:30:06.249Z,99.90
2017-08-13T06:32:33.693Z,99.90
2017-08-13T06:35:01.131Z,99.90
2017-08-13T06:37:28.660Z,99.90
2017-08-13T06:39:56.884Z,99.90
2017-08-13T06:42:24.343Z,99.90
2017-08-13T06:44:51.906Z,99.90
2017-08-13T06:47:19.358Z,99.90
2017-08-13T06:49:46.908Z,99.90
2017-08-13T06:52:14.339Z,99.90
2017-08-13T06:54:41.763Z,99.90
2017-08-13T06:57:09.983Z,99.90
2017-08-13T06:59:37.426Z,99.90
2017-08-13T07:02:04.909Z,99.90
2017-08-13T07:04:32.352Z,99.90
2017-08-13T07:06:59.777Z,99.90
2017-08-13T07:09:27.222Z,99.90
2017-08-13T07:11:55.445Z,99.90
2017-08-13T07:14:23.552Z,99.90
2017-08-13T07:16:51.037Z,99.90
2017-08-13T07:19:18.534Z,99.90
2017-08-13T07:21:46.009Z,99.90
2017-08-13T07:24:13.450Z,99.90
2017-08-13T07:26:40.898Z,99.90
2017-08-13T07:29:08.349Z,99.90
2017-08-13T07:31:35.803Z,99.90
2017-08-13T07:34:03.276Z,99.90
2017-08-13T07:36:30.715Z,99.90
2017-08-13T07:38:58.175Z,99.90
2017-08-13T07:41:25.654Z,99.90
2017-08-13T07:43:53.202Z,99.90
2017-08-13T07:46:20.626Z,99.90
2017-08-13T07:48:48.104Z,99.90
2017-08-13T07:51:15.536Z,99.90
2017-08-13T07:53:42.968Z,99.90
2017-08-13T07:56:11.159Z,99.90
2017-08-13T07:58:38.603Z,99.90
2017-08-13T08:01:06.804Z,99.90
2017-08-13T08:03:34.298Z,99.90
2017-08-13T08:06:01.729Z,99.90
2017-08-13T08:08:29.200Z,99.90
2017-08-13T08:10:56.639Z,99.90
2017-08-13T08:13:24.102Z,99.90
2017-08-13T08:15:51.559Z,99.90
2017-08-13T08:18:18.986Z,99.90
2017-08-13T08:20:46.482Z,99.90
2017-08-13T08:23:13.955Z,99.90
2017-08-13T08:25:41.386Z,99.90
2017-08-13T08:28:08.833Z,99.90
2017-08-13T08:30:36.262Z,99.90
2017-08-13T08:33:03.847Z,99.90
2017-08-13T08:35:31.317Z,99.90
2017-08-13T08:37:58.782Z,99.90
2017-08-13T08:40:26.217Z,99.90
2017-08-13T08:42:54.606Z,99.90
2017-08-13T08:45:22.077Z,99.90
2017-08-13T08:47:49.590Z,99.90
2017-08-13T08:50:17.080Z,99.90
2017-08-13T08:52:44.534Z,99.90
2017-08-13T08:55:11.966Z,99.90
2017-08-13T08:57:39.457Z,99.90
2017-08-13T09:00:06.887Z,99.90
2017-08-13T09:02:34.331Z,99.90
2017-08-13T09:05:01.753Z,99.90
2017-08-13T09:07:29.994Z,99.90
2017-08-13T09:09:57.456Z,99.90
2017-08-13T09:12:24.886Z,99.90
2017-08-13T09:14:52.362Z,99.90
2017-08-13T09:17:19.799Z,99.90
2017-08-13T09:19:47.273Z,99.90
2017-08-13T09:22:14.726Z,99.90
2017-08-13T09:24:42.167Z,99.90
2017-08-13T09:27:09.613Z,99.90
2017-08-13T09:29:37.038Z,99.90
2017-08-13T09:32:05.240Z,99.90
2017-08-13T09:34:32.677Z,99.90
2017-08-13T09:37:00.898Z,99.90
2017-08-13T09:39:28.328Z,99.90
2017-08-13T09:41:55.751Z,99.90
2017-08-13T09:44:24.085Z,99.90
2017-08-13T09:46:51.543Z,99.90
2017-08-13T09:49:18.974Z,99.90
2017-08-13T09:51:46.449Z,99.90
2017-08-13T09:54:13.911Z,99.90
2017-08-13T09:56:41.352Z,99.90
2017-08-13T09:59:08.777Z,99.90
2017-08-13T10:01:36.279Z,99.90
2017-08-13T10:04:03.721Z,99.90
2017-08-13T10:06:31.156Z,99.90
2017-08-13T10:08:58.587Z,99.90
2017-08-13T10:11:26.015Z,99.90
2017-08-13T10:13:53.458Z,99.90
2017-08-13T10:16:20.897Z,99.90
2017-08-13T10:18:48.479Z,99.90
2017-08-13T10:21:15.972Z,99.90
2017-08-13T10:23:43.365Z,99.90
2017-08-13T10:26:10.847Z,99.90
2017-08-13T10:28:38.309Z,99.90
2017-08-13T10:31:05.742Z,99.90
2017-08-13T10:33:33.584Z,99.90
2017-08-13T10:36:01.170Z,99.90
2017-08-13T10:38:28.581Z,99.90
2017-08-13T10:40:56.872Z,99.90
2017-08-13T10:43:24.327Z,99.90
2017-08-13T10:45:51.809Z,99.90
2017-08-13T10:48:19.248Z,99.90
2017-08-13T10:50:46.733Z,99.90
2017-08-13T10:53:14.178Z,99.90
2017-08-13T10:55:41.610Z,99.90
2017-08-13T10:58:09.118Z,99.90
2017-08-13T11:00:36.546Z,99.90
2017-08-13T11:03:04.018Z,99.90
2017-08-13T11:05:31.477Z,99.90
2017-08-13T11:07:58.902Z,99.90
2017-08-13T11:10:26.354Z,99.90
2017-08-13T11:12:53.775Z,99.90
2017-08-13T11:15:21.315Z,99.90
2017-08-13T11:17:48.755Z,99.90
2017-08-13T11:20:16.212Z,99.90
2017-08-13T11:22:43.669Z,99.90
2017-08-13T11:25:11.102Z,99.90
2017-08-13T11:27:38.594Z,99.90
2017-08-13T11:30:06.032Z,99.90
2017-08-13T11:32:33.503Z,99.90
2017-08-13T11:35:00.975Z,99.90
2017-08-13T11:37:28.408Z,99.90
2017-08-13T11:39:55.864Z,99.90
2017-08-13T11:42:23.299Z,99.90
2017-08-13T11:44:50.730Z,99.90
2017-08-13T11:47:18.168Z,99.90
2017-08-13T11:49:46.358Z,99.90
2017-08-13T11:52:13.803Z,99.90
2017-08-13T11:54:42.035Z,99.90
2017-08-13T11:57:09.487Z,99.90
2017-08-13T11:59:36.927Z,99.90
2017-08-13T12:02:04.353Z,99.90
2017-08-13T12:04:32.554Z,99.90
2017-08-13T12:06:59.986Z,99.90
2017-08-13T12:09:27.409Z,99.90
2017-08-13T12:11:54.837Z,99.90
2017-08-13T12:14:22.313Z,99.90
2017-08-13T12:16:49.754Z,99.90
2017-08-13T12:19:17.185Z,99.90
2017-08-13T12:21:44.682Z,99.90
2017-08-13T12:24:12.123Z,99.90
2017-08-13T12:26:39.580Z,99.90
2017-08-13T12:29:07.041Z,99.90
2017-08-13T12:31:34.494Z,99.90
2017-08-13T12:34:01.941Z,99.90
2017-08-13T12:36:29.389Z,99.90
2017-08-13T12:38:56.850Z,99.90
2017-08-13T12:41:24.327Z,99.90
2017-08-13T12:43:51.772Z,99.90
2017-08-13T12:46:19.255Z,99.90
2017-08-13T12:48:46.774Z,99.90
2017-08-13T12:51:14.220Z,99.90
2017-08-13T12:53:41.653Z,99.90
2017-08-13T12:56:09.882Z,99.90
2017-08-13T12:58:37.417Z,99.90
2017-08-13T13:01:04.982Z,99.90
2017-08-13T13:03:32.702Z,99.90
2017-08-13T13:06:00.113Z,99.90
2017-08-13T13:08:27.661Z,99.90
2017-08-13T13:10:55.107Z,99.90
2017-08-13T13:13:22.518Z,99.90
2017-08-13T13:15:50.754Z,99.90
2017-08-13T13:18:18.190Z,99.90
2017-08-13T13:20:45.624Z,99.90
2017-08-13T13:23:13.118Z,99.90
2017-08-13T13:25:40.766Z,99.90
2017-08-13T13:28:08.243Z,99.90
2017-08-13T13:30:35.698Z,99.90
2017-08-13T13:33:03.154Z,99.90
2017-08-13T13:35:30.598Z,99.90
2017-08-13T13:37:58.026Z,99.90
2017-08-13T13:40:25.481Z,99.90
2017-08-13T13:42:52.993Z,99.90
2017-08-13T13:45:20.423Z,99.90
2017-08-13T13:47:47.894Z,99.90
2017-08-13T13:50:15.338Z,99.90
2017-08-13T13:52:42.888Z,99.90
2017-08-13T13:55:10.459Z,99.90
2017-08-13T13:57:37.902Z,99.90
2017-08-13T14:00:05.376Z,99.90
2017-08-13T14:02:32.946Z,99.90
2017-08-13T14:05:00.390Z,99.90
2017-08-13T14:07:27.849Z,99.90
2017-08-13T14:09:55.287Z,99.90
2017-08-13T14:12:22.713Z,99.90
2017-08-13T14:14:50.216Z,99.90
2017-08-13T14:17:17.656Z,99.90
2017-08-13T14:19:45.141Z,99.90
2017-08-13T14:22:12.563Z,99.90
2017-08-13T14:24:40.142Z,99.90
2017-08-13T14:27:07.569Z,99.90
2017-08-13T14:29:35.016Z,99.90
2017-08-13T14:32:02.508Z,99.90
2017-08-13T14:34:30.038Z,99.90
2017-08-13T14:36:57.483Z,99.90
2017-08-13T14:39:24.982Z,99.90
2017-08-13T14:41:52.439Z,99.90
2017-08-13T14:44:19.867Z,99.90
2017-08-13T14:46:47.350Z,99.90
2017-08-13T14:49:14.820Z,99.90
2017-08-13T14:51:42.241Z,99.90
2017-08-13T14:54:09.722Z,99.90
2017-08-13T14:56:37.177Z,99.90
2017-08-13T14:59:04.601Z,99.90
2017-08-13T15:01:32.185Z,99.90
2017-08-13T15:03:59.627Z,99.90
2017-08-13T15:06:27.057Z,99.90
2017-08-13T15:08:54.498Z,99.90
2017-08-13T15:11:22.716Z,99.90
2017-08-13T15:13:50.194Z,99.90
2017-08-13T15:16:17.623Z,99.90
2017-08-13T15:18:45.058Z,99.90
2017-08-13T15:21:12.560Z,99.90
2017-08-13T15:23:40.006Z,99.90
2017-08-13T15:26:07.435Z,99.90
2017-08-13T15:28:35.023Z,99.90
2017-08-13T15:31:02.450Z,99.90
2017-08-13T15:33:29.934Z,99.90
2017-08-13T15:35:57.500Z,99.90
2017-08-13T15:38:24.962Z,99.90
2017-08-13T15:40:52.406Z,99.90
2017-08-13T15:43:19.848Z,99.90
2017-08-13T15:45:47.413Z,99.90
2017-08-13T15:48:14.897Z,99.90
2017-08-13T15:50:42.334Z,99.90
2017-08-13T15:53:09.821Z,99.90
2017-08-13T15:55:37.351Z,99.90
2017-08-13T15:58:04.777Z,99.90
2017-08-13T16:00:32.211Z,99.90
2017-08-13T16:03:00.439Z,99.90
2017-08-13T16:05:27.890Z,99.90
2017-08-13T16:07:55.322Z,99.90
2017-08-13T16:10:22.765Z,99.90
2017-08-13T16:12:50.200Z,99.90
2017-08-13T16:15:17.629Z,99.90
2017-08-13T16:17:45.082Z,99.20
2017-08-13T16:20:12.529Z,98.50
2017-08-13T16:22:40.205Z,97.80
2017-08-13T16:25:07.639Z,97.80
2017-08-13T16:27:35.110Z,97.80
2017-08-13T16:30:02.563Z,98.00
2017-08-13T16:32:29.995Z,98.30
2017-08-13T16:34:57.428Z,99.10
2017-08-13T16:37:24.870Z,98.70
2017-08-13T16:39:53.102Z,99.70
2017-08-13T16:42:20.559Z,99.70
2017-08-13T16:44:48.018Z,99.80
2017-08-13T16:47:15.485Z,99.10
2017-08-13T16:49:42.922Z,98.60
2017-08-13T16:52:10.388Z,99.10
2017-08-13T16:54:37.852Z,99.90
2017-08-13T16:57:05.294Z,99.90
2017-08-13T16:59:32.842Z,99.90
2017-08-13T17:02:00.283Z,99.90
2017-08-13T17:04:27.714Z,99.90
2017-08-13T17:06:55.949Z,99.90
2017-08-13T17:09:23.414Z,99.90
2017-08-13T17:11:50.955Z,99.90
2017-08-13T17:14:18.395Z,99.90
2017-08-13T17:16:45.826Z,99.90
2017-08-13T17:19:14.056Z,99.90
2017-08-13T17:21:41.495Z,99.90
2017-08-13T17:24:08.955Z,99.90
2017-08-13T17:26:36.422Z,99.90
2017-08-13T17:29:03.864Z,99.90
2017-08-13T17:31:31.325Z,99.90
2017-08-13T17:33:58.786Z,99.90
2017-08-13T17:36:26.215Z,99.90
2017-08-13T17:38:53.637Z,99.90
2017-08-13T17:41:21.879Z,99.90
2017-08-13T17:43:49.303Z,99.90
2017-08-13T17:46:16.729Z,99.90
2017-08-13T17:48:44.166Z,99.90
2017-08-13T17:51:11.705Z,99.90
2017-08-13T17:53:39.133Z,99.90
2017-08-13T17:56:06.697Z,99.90
2017-08-13T17:58:34.263Z,99.90
2017-08-13T18:01:02.727Z,99.90
2017-08-13T18:03:30.194Z,99.90
2017-08-13T18:05:57.658Z,99.90
2017-08-13T18:08:25.083Z,99.90
2017-08-13T18:10:52.567Z,99.90
2017-08-13T18:13:19.994Z,99.90
2017-08-13T18:15:47.554Z,99.90
2017-08-13T18:18:14.987Z,99.90
2017-08-13T18:20:43.326Z,99.90
2017-08-13T18:23:10.871Z,99.90
2017-08-13T18:25:38.325Z,99.90
2017-08-13T18:28:05.793Z,99.90
2017-08-13T18:30:33.330Z,99.90
2017-08-13T18:33:00.768Z,99.90
2017-08-13T18:35:28.190Z,99.90
2017-08-13T18:37:56.444Z,99.90
2017-08-13T18:40:23.872Z,99.90
2017-08-13T18:42:51.293Z,99.90
2017-08-13T18:45:19.510Z,99.90
2017-08-13T18:47:46.959Z,99.90
2017-08-13T18:50:14.383Z,99.90
2017-08-13T18:52:41.869Z,99.90
2017-08-13T18:55:09.346Z,99.90
2017-08-13T18:57:36.790Z,99.90
2017-08-13T19:00:04.251Z,99.90
2017-08-13T19:02:31.721Z,99.90
2017-08-13T19:04:59.158Z,99.90
2017-08-13T19:07:26.602Z,99.90
2017-08-13T19:09:54.086Z,99.90
2017-08-13T19:12:21.506Z,99.90
2017-08-13T19:14:48.946Z,99.90
2017-08-13T19:17:17.159Z,99.90
2017-08-13T19:19:44.586Z,99.90
2017-08-13T19:22:12.079Z,99.90
2017-08-13T19:24:39.533Z,99.90
2017-08-13T19:27:07.003Z,99.90
2017-08-13T19:29:34.437Z,99.90
2017-08-13T19:32:01.869Z,99.90
2017-08-13T19:34:29.463Z,99.90
2017-08-13T19:36:56.922Z,99.90
2017-08-13T19:39:24.354Z,99.90
2017-08-13T19:41:51.795Z,99.90
2017-08-13T19:44:19.255Z,99.90
2017-08-13T19:46:46.832Z,99.90
2017-08-13T19:49:14.285Z,99.90
2017-08-13T19:51:41.698Z,99.90
2017-08-13T19:54:09.897Z,99.90
2017-08-13T19:56:37.499Z,99.90
2017-08-13T19:59:05.443Z,99.90
2017-08-13T20:01:33.721Z,99.90
2017-08-13T20:04:01.143Z,99.90
2017-08-13T20:06:29.334Z,99.90
2017-08-13T20:08:56.782Z,99.90
2017-08-13T20:11:24.222Z,99.90
2017-08-13T20:13:52.412Z,99.90
2017-08-13T20:16:19.898Z,99.90
2017-08-13T20:18:47.360Z,99.90
2017-08-13T20:21:14.790Z,99.90
2017-08-13T20:23:42.268Z,99.90
2017-08-13T20:26:09.750Z,99.90
2017-08-13T20:28:37.193Z,99.90
2017-08-13T20:31:04.645Z,99.90
2017-08-13T20:33:32.106Z,99.90
2017-08-13T20:35:59.531Z,99.90
2017-08-13T20:38:27.007Z,99.90
2017-08-13T20:40:54.439Z,99.90
2017-08-13T20:43:21.870Z,99.90
2017-08-13T20:45:50.071Z,99.90
2017-08-13T20:48:17.510Z,99.90
2017-08-13T20:50:45.013Z,99.90
2017-08-13T20:53:12.450Z,99.90
2017-08-13T20:55:39.890Z,99.90
2017-08-13T20:58:07.379Z,99.90
2017-08-13T21:00:34.800Z,99.90
2017-08-13T21:03:02.252Z,99.90
2017-08-13T21:05:29.749Z,99.90
2017-08-13T21:07:57.198Z,99.90
2017-08-13T21:10:24.664Z,99.90
2017-08-13T21:12:52.202Z,99.90
2017-08-13T21:15:19.617Z,99.90
2017-08-13T21:17:47.815Z,99.90
2017-08-13T21:20:15.301Z,99.90
2017-08-13T21:22:42.766Z,99.90
2017-08-13T21:25:10.198Z,99.90
2017-08-13T21:27:37.634Z,99.90
2017-08-13T21:30:05.135Z,99.90
2017-08-13T21:32:32.564Z,99.90
2017-08-13T21:35:00.014Z,99.90
2017-08-13T21:37:27.507Z,99.90
2017-08-13T21:39:55.106Z,99.90
2017-08-13T21:42:23.418Z,99.90
2017-08-13T21:44:50.857Z,99.90
2017-08-13T21:47:18.347Z,99.90
2017-08-13T21:49:45.790Z,99.90
2017-08-13T21:52:13.359Z,99.90
2017-08-13T21:54:41.025Z,99.90
2017-08-13T21:57:08.478Z,99.90
2017-08-13T21:59:35.938Z,99.90
2017-08-13T22:02:03.354Z,99.90
2017-08-13T22:04:30.857Z,99.90
2017-08-13T22:06:58.287Z,99.90
2017-08-13T22:09:25.758Z,99.90
2017-08-13T22:11:53.219Z,99.90
2017-08-13T22:14:20.662Z,99.90
2017-08-13T22:16:48.098Z,99.90
2017-08-13T22:19:15.583Z,99.90
2017-08-13T22:21:43.082Z,99.90
2017-08-13T22:24:11.283Z,99.90
2017-08-13T22:26:38.774Z,99.90
2017-08-13T22:29:06.246Z,99.90
2017-08-13T22:31:33.786Z,99.90
2017-08-13T22:34:01.346Z,99.90
2017-08-13T22:36:28.793Z,99.90
2017-08-13T22:38:56.258Z,99.90
2017-08-13T22:41:23.710Z,99.90
2017-08-13T22:43:51.176Z,99.90
2017-08-13T22:46:18.726Z,99.90
2017-08-13T22:48:46.189Z,99.90
2017-08-13T22:51:13.643Z,99.90
2017-08-13T22:53:41.090Z,99.90
2017-08-13T22:56:08.566Z,99.90
2017-08-13T22:58:36.015Z,99.90
2017-08-13T23:01:09.930Z,99.90
2017-08-13T23:03:37.370Z,99.90
2017-08-13T23:06:04.839Z,99.90
2017-08-13T23:08:32.298Z,99.90
2017-08-13T23:10:59.855Z,99.90
2017-08-13T23:13:27.295Z,99.90
2017-08-13T23:15:54.714Z,99.90
2017-08-13T23:18:22.226Z,99.90
2017-08-13T23:20:49.675Z,99.90
2017-08-13T23:23:17.106Z,99.90
2017-08-13T23:25:44.549Z,99.90
2017-08-13T23:28:12.050Z,99.90
2017-08-13T23:30:39.494Z,99.90
2017-08-13T23:33:06.955Z,99.90
2017-08-13T23:35:34.404Z,99.90
2017-08-13T23:38:01.883Z,99.90
2017-08-13T23:40:29.423Z,99.90
2017-08-13T23:42:56.873Z,99.90
2017-08-13T23:45:24.299Z,99.90
2017-08-13T23:47:51.802Z,99.90
2017-08-13T23:50:19.238Z,99.90
2017-08-13T23:52:46.653Z,99.90
2017-08-13T23:55:14.851Z,99.90
2017-08-13T23:57:42.274Z,99.90
